createdAt,value
2022-10-10T00:01:19.154Z,11.60
2022-10-10T00:03:46.601Z,11.70
2022-10-10T00:06:14.969Z,11.60
2022-10-10T00:08:42.986Z,11.50
2022-10-10T00:11:10.933Z,11.50
2022-10-10T00:13:38.094Z,11.50
2022-10-10T00:16:05.182Z,11.50
2022-10-10T00:18:32.935Z,11.50
2022-10-10T00:20:59.832Z,11.40
2022-10-10T00:23:26.632Z,11.40
2022-10-10T00:25:53.707Z,11.30
2022-10-10T00:28:21.967Z,11.30
2022-10-10T00:30:48.760Z,11.30
2022-10-10T00:33:15.617Z,11.20
2022-10-10T00:35:42.617Z,11.10
2022-10-10T00:38:10.480Z,11.10
2022-10-10T00:40:46.193Z,11.20
2022-10-10T00:43:13.774Z,11.20
2022-10-10T00:45:42.631Z,11.10
2022-10-10T00:48:31.551Z,11.10
2022-10-10T00:51:09.327Z,11.00
2022-10-10T00:54:04.390Z,11.00
2022-10-10T00:56:35.843Z,10.90
2022-10-10T00:59:07.298Z,10.90
2022-10-10T01:01:34.368Z,10.90
2022-10-10T01:04:02.800Z,10.90
2022-10-10T01:06:30.330Z,10.90
2022-10-10T01:08:57.466Z,10.90
2022-10-10T01:11:27.013Z,10.80
2022-10-10T01:14:12.251Z,10.80
2022-10-10T01:17:09.657Z,10.80
2022-10-10T01:20:02.556Z,10.70
2022-10-10T01:22:54.109Z,10.70
2022-10-10T01:25:32.611Z,10.70
2022-10-10T01:28:03.101Z,10.60
2022-10-10T01:30:31.039Z,10.70
2022-10-10T01:33:17.223Z,10.70
2022-10-10T01:36:08.717Z,10.70
2022-10-10T01:38:54.235Z,10.60
2022-10-10T01:41:26.905Z,10.60
2022-10-10T01:43:55.795Z,10.60
2022-10-10T01:46:23.234Z,10.60
2022-10-10T01:48:53.610Z,10.60
2022-10-10T01:51:45.028Z,10.60
2022-10-10T01:54:34.731Z,10.60
2022-10-10T01:57:20.543Z,10.50
2022-10-10T02:00:02.185Z,10.50
2022-10-10T02:02:43.932Z,10.50
2022-10-10T02:05:32.508Z,10.50
2022-10-10T02:08:21.652Z,10.40
2022-10-10T02:10:55.549Z,10.50
2022-10-10T02:13:29.958Z,10.40
2022-10-10T02:15:59.646Z,10.50
2022-10-10T02:18:29.273Z,10.40
2022-10-10T02:20:56.356Z,10.30
2022-10-10T02:23:23.756Z,10.30
2022-10-10T02:25:56.433Z,10.30
2022-10-10T02:28:46.593Z,10.30
2022-10-10T02:31:19.463Z,10.40
2022-10-10T02:33:56.622Z,10.30
2022-10-10T02:36:25.049Z,10.30
2022-10-10T02:38:53.655Z,10.30
2022-10-10T02:41:22.074Z,10.30
2022-10-10T02:43:50.973Z,10.20
2022-10-10T02:46:17.992Z,10.20
2022-10-10T02:48:45.209Z,10.20
2022-10-10T02:51:15.811Z,10.10
2022-10-10T02:53:42.663Z,10.20
2022-10-10T02:56:09.413Z,10.20
2022-10-10T02:58:36.278Z,10.30
2022-10-10T03:01:03.465Z,10.20
2022-10-10T03:03:30.399Z,10.20
2022-10-10T03:05:57.203Z,10.30
2022-10-10T03:08:24.024Z,10.30
2022-10-10T03:11:02.249Z,10.20
2022-10-10T03:13:30.818Z,10.30
2022-10-10T03:15:57.612Z,10.30
2022-10-10T03:18:24.739Z,10.30
2022-10-10T03:20:55.988Z,10.40
2022-10-10T03:23:25.947Z,10.40
2022-10-10T03:25:52.887Z,10.30
2022-10-10T03:28:20.372Z,10.30
2022-10-10T03:30:47.978Z,10.40
2022-10-10T03:33:14.854Z,10.40
2022-10-10T03:35:41.655Z,10.30
2022-10-10T03:38:08.778Z,10.40
2022-10-10T03:40:40.965Z,10.30
2022-10-10T03:43:09.491Z,10.40
2022-10-10T03:45:36.749Z,10.40
2022-10-10T03:48:05.408Z,10.30
2022-10-10T03:50:32.209Z,10.20
2022-10-10T03:52:58.957Z,10.20
2022-10-10T03:55:27.172Z,10.30
2022-10-10T03:57:54.032Z,10.30
2022-10-10T04:00:22.635Z,10.20
2022-10-10T04:02:49.667Z,10.20
2022-10-10T04:05:16.955Z,10.20
2022-10-10T04:07:44.972Z,10.20
2022-10-10T04:10:11.730Z,10.10
2022-10-10T04:12:38.579Z,10.10
2022-10-10T04:15:06.053Z,10.10
2022-10-10T04:17:33.066Z,10.10
2022-10-10T04:20:00.020Z,10.10
2022-10-10T04:22:26.718Z,10.00
2022-10-10T04:24:53.559Z,10.00
2022-10-10T04:27:20.327Z,10.00
2022-10-10T04:29:48.199Z,10.10
2022-10-10T04:32:15.014Z,10.00
2022-10-10T04:34:41.713Z,10.10
2022-10-10T04:37:08.505Z,10.10
2022-10-10T04:39:35.238Z,9.90
2022-10-10T04:42:02.195Z,10.00
2022-10-10T04:44:29.124Z,10.10
2022-10-10T04:46:56.014Z,10.00
2022-10-10T04:49:23.210Z,10.00
2022-10-10T04:51:50.099Z,9.90
2022-10-10T04:54:16.901Z,10.00
2022-10-10T04:56:43.792Z,10.10
2022-10-10T04:59:10.797Z,10.00
2022-10-10T05:01:37.786Z,10.10
2022-10-10T05:04:05.086Z,9.90
2022-10-10T05:06:32.267Z,10.00
2022-10-10T05:08:59.294Z,10.00
2022-10-10T05:11:26.198Z,10.00
2022-10-10T05:13:53.072Z,10.00
2022-10-10T05:16:19.904Z,10.00
2022-10-10T05:18:46.873Z,9.90
2022-10-10T05:21:13.607Z,9.90
2022-10-10T05:23:41.856Z,9.90
2022-10-10T05:26:10.505Z,10.00
2022-10-10T05:28:37.673Z,9.90
2022-10-10T05:31:05.597Z,10.00
2022-10-10T05:33:34.065Z,9.90
2022-10-10T05:36:06.223Z,10.00
2022-10-10T05:38:34.037Z,10.00
2022-10-10T05:41:00.992Z,10.00
2022-10-10T05:43:27.781Z,10.00
2022-10-10T05:45:55.074Z,10.00
2022-10-10T05:48:22.163Z,10.00
2022-10-10T05:50:51.687Z,10.10
2022-10-10T05:53:18.880Z,10.10
2022-10-10T05:55:45.695Z,10.00
2022-10-10T05:58:15.499Z,9.80
2022-10-10T06:00:43.972Z,9.90
2022-10-10T06:03:14.430Z,10.00
2022-10-10T06:05:41.364Z,10.10
2022-10-10T06:08:11.839Z,9.90
2022-10-10T06:10:42.475Z,9.90
2022-10-10T06:13:10.585Z,10.00
2022-10-10T06:15:37.678Z,9.90
2022-10-10T06:18:05.673Z,9.90
2022-10-10T06:20:35.709Z,10.00
2022-10-10T06:23:03.973Z,10.10
2022-10-10T06:25:41.275Z,10.00
2022-10-10T06:28:09.271Z,10.10
2022-10-10T06:30:43.789Z,10.00
2022-10-10T06:33:12.121Z,9.90
2022-10-10T06:35:43.761Z,9.90
2022-10-10T06:38:11.024Z,9.90
2022-10-10T06:40:38.140Z,9.90
2022-10-10T06:43:09.034Z,9.90
2022-10-10T06:45:37.036Z,10.00
2022-10-10T06:48:04.270Z,9.90
2022-10-10T06:50:31.202Z,9.90
2022-10-10T06:52:57.996Z,9.80
2022-10-10T06:55:24.864Z,9.90
2022-10-10T06:57:51.736Z,10.00
2022-10-10T07:00:18.613Z,10.00
2022-10-10T07:02:45.463Z,9.90
2022-10-10T07:05:13.967Z,10.10
2022-10-10T07:07:40.789Z,10.10
2022-10-10T07:10:10.216Z,10.20
2022-10-10T07:12:44.205Z,10.30
2022-10-10T07:15:12.071Z,10.50
2022-10-10T07:17:39.071Z,10.50
2022-10-10T07:20:06.825Z,10.60
2022-10-10T07:22:33.970Z,10.70
2022-10-10T07:25:00.687Z,10.80
2022-10-10T07:27:27.502Z,11.00
2022-10-10T07:29:54.284Z,11.10
2022-10-10T07:32:21.083Z,11.10
2022-10-10T07:34:47.802Z,11.20
2022-10-10T07:37:14.543Z,11.40
2022-10-10T07:39:41.538Z,11.50
2022-10-10T07:42:08.233Z,11.50
2022-10-10T07:44:35.172Z,11.70
2022-10-10T07:47:01.996Z,11.80
2022-10-10T07:49:28.888Z,11.90
2022-10-10T07:51:58.888Z,12.00
2022-10-10T07:54:27.510Z,12.00
2022-10-10T07:56:55.489Z,12.00
2022-10-10T07:59:22.915Z,12.10
2022-10-10T08:01:50.006Z,12.10
2022-10-10T08:04:18.143Z,12.30
2022-10-10T08:06:44.833Z,12.30
2022-10-10T08:09:11.800Z,12.40
2022-10-10T08:11:38.525Z,12.40
2022-10-10T08:14:05.536Z,12.20
2022-10-10T08:16:32.431Z,12.20
2022-10-10T08:18:59.164Z,12.20
2022-10-10T08:21:25.977Z,12.30
2022-10-10T08:23:52.712Z,12.30
2022-10-10T08:26:20.146Z,12.50
2022-10-10T08:28:48.623Z,12.90
2022-10-10T08:31:18.437Z,12.90
2022-10-10T08:33:46.207Z,13.20
2022-10-10T08:36:15.828Z,13.50
2022-10-10T08:38:43.483Z,13.90
2022-10-10T08:41:44.113Z,14.00
2022-10-10T08:44:23.692Z,14.40
2022-10-10T08:47:18.144Z,14.50
2022-10-10T08:50:06.144Z,14.10
2022-10-10T08:52:55.793Z,14.00
2022-10-10T08:55:43.909Z,13.90
2022-10-10T08:58:29.836Z,14.10
2022-10-10T09:01:12.826Z,14.30
2022-10-10T09:03:46.428Z,14.20
2022-10-10T09:06:17.474Z,14.20
2022-10-10T09:09:08.447Z,14.20
2022-10-10T09:11:53.511Z,14.20
2022-10-10T09:15:02.569Z,14.50
2022-10-10T09:17:39.091Z,14.70
2022-10-10T09:20:30.693Z,14.80
2022-10-10T09:23:21.177Z,14.80
2022-10-10T09:26:16.592Z,14.80
2022-10-10T09:29:06.362Z,14.90
2022-10-10T09:31:46.140Z,14.80
2022-10-10T09:34:20.988Z,14.90
2022-10-10T09:36:48.393Z,15.10
2022-10-10T09:39:38.877Z,15.10
2022-10-10T09:42:14.205Z,15.00
2022-10-10T09:44:42.802Z,15.00
2022-10-10T09:47:15.804Z,14.90
2022-10-10T09:49:43.985Z,14.90
2022-10-10T09:52:31.334Z,14.90
2022-10-10T09:55:22.438Z,15.00
2022-10-10T09:57:51.740Z,14.90
2022-10-10T10:00:21.308Z,14.90
2022-10-10T10:02:49.364Z,15.00
2022-10-10T10:05:27.565Z,15.00
2022-10-10T10:07:54.423Z,15.00
2022-10-10T10:10:24.480Z,15.10
2022-10-10T10:12:52.454Z,15.00
2022-10-10T10:15:25.079Z,15.00
2022-10-10T10:18:13.711Z,15.10
2022-10-10T10:20:45.776Z,15.20
2022-10-10T10:23:31.206Z,15.60
2022-10-10T10:26:06.605Z,15.90
2022-10-10T10:28:43.919Z,16.00
2022-10-10T10:31:44.573Z,16.00
2022-10-10T10:34:31.058Z,16.20
2022-10-10T10:37:16.748Z,16.30
2022-10-10T10:39:56.080Z,16.40
2022-10-10T10:42:39.755Z,16.50
2022-10-10T10:45:14.912Z,16.50
2022-10-10T10:47:58.950Z,16.60
2022-10-10T10:50:31.491Z,16.50
2022-10-10T10:53:35.336Z,16.60
2022-10-10T11:02:57.538Z,16.60
2022-10-10T11:05:43.401Z,16.70
2022-10-10T11:08:26.467Z,16.70
2022-10-10T11:11:25.184Z,16.80
2022-10-10T11:14:27.248Z,17.00
2022-10-10T11:17:07.454Z,17.20
2022-10-10T11:20:06.752Z,17.40
2022-10-10T11:22:46.406Z,17.50
2022-10-10T11:25:25.819Z,17.70
2022-10-10T11:28:03.095Z,17.80
2022-10-10T11:30:36.042Z,18.00
2022-10-10T11:33:13.764Z,18.30
2022-10-10T11:35:54.094Z,18.50
2022-10-10T11:38:25.181Z,18.60
2022-10-10T11:41:15.292Z,18.60
2022-10-10T11:43:47.822Z,18.80
2022-10-10T11:46:39.622Z,19.00
2022-10-10T11:49:11.581Z,18.60
2022-10-10T11:52:21.557Z,18.80
2022-10-10T11:55:10.548Z,18.90
2022-10-10T11:57:55.068Z,19.20
2022-10-10T12:00:21.919Z,19.40
2022-10-10T12:02:49.047Z,19.70
2022-10-10T12:05:23.416Z,19.90
2022-10-10T12:08:34.337Z,19.80
2022-10-10T12:11:05.995Z,19.60
2022-10-10T12:14:08.491Z,19.20
2022-10-10T12:16:37.759Z,18.90
2022-10-10T12:19:23.176Z,18.80
2022-10-10T12:22:02.236Z,18.50
2022-10-10T12:24:54.209Z,18.30
2022-10-10T12:27:41.605Z,18.30
2022-10-10T12:30:08.311Z,18.30
2022-10-10T12:32:41.492Z,18.20
2022-10-10T12:35:37.219Z,17.90
2022-10-10T12:38:20.617Z,17.80
2022-10-10T12:41:05.612Z,17.80
2022-10-10T12:43:42.434Z,17.80
2022-10-10T12:46:30.501Z,17.80
2022-10-10T12:49:19.152Z,17.70
2022-10-10T12:52:21.654Z,17.70
2022-10-10T12:54:50.007Z,17.80
2022-10-10T12:57:47.274Z,17.70
2022-10-10T13:00:23.463Z,17.60
2022-10-10T13:02:55.205Z,17.60
2022-10-10T13:05:29.075Z,17.60
2022-10-10T13:08:00.975Z,17.60
2022-10-10T13:10:31.016Z,17.60
2022-10-10T13:13:03.104Z,17.40
2022-10-10T13:15:31.366Z,17.30
2022-10-10T13:17:58.232Z,17.20
2022-10-10T13:20:39.774Z,17.10
2022-10-10T13:23:12.019Z,17.10
2022-10-10T13:25:40.390Z,17.00
2022-10-10T13:28:18.787Z,17.00
2022-10-10T13:30:46.279Z,16.90
2022-10-10T13:33:22.446Z,16.80
2022-10-10T13:35:50.978Z,16.80
2022-10-10T13:38:23.216Z,16.60
2022-10-10T13:40:50.235Z,16.50
2022-10-10T13:43:19.334Z,16.60
2022-10-10T13:45:56.911Z,16.70
2022-10-10T13:48:35.479Z,16.60
2022-10-10T13:51:04.715Z,16.60
2022-10-10T13:53:34.359Z,16.60
2022-10-10T13:56:11.529Z,16.50
2022-10-10T13:59:01.722Z,16.50
2022-10-10T14:01:39.542Z,16.50
2022-10-10T14:04:44.387Z,16.50
2022-10-10T14:07:16.540Z,16.50
2022-10-10T14:10:10.610Z,16.50
2022-10-10T14:12:44.060Z,16.40
2022-10-10T14:15:31.087Z,16.30
2022-10-10T14:17:59.428Z,16.30
2022-10-10T14:20:27.644Z,16.40
2022-10-10T14:22:54.413Z,16.30
2022-10-10T14:25:21.255Z,16.30
2022-10-10T14:27:48.105Z,16.20
2022-10-10T14:30:15.252Z,16.30
2022-10-10T14:32:42.305Z,16.20
2022-10-10T14:35:12.009Z,16.00
2022-10-10T14:37:39.016Z,16.00
2022-10-10T14:40:33.088Z,15.90
2022-10-10T14:43:00.188Z,15.60
2022-10-10T14:45:26.939Z,15.40
2022-10-10T14:47:53.865Z,15.20
2022-10-10T14:50:27.319Z,14.80
2022-10-10T14:52:54.142Z,14.70
2022-10-10T14:55:20.915Z,14.60
2022-10-10T14:57:47.749Z,14.60
2022-10-10T15:00:17.941Z,14.40
2022-10-10T15:02:45.895Z,14.10
2022-10-10T15:05:13.550Z,14.00
2022-10-10T15:07:41.167Z,14.10
2022-10-10T15:10:33.110Z,13.90
2022-10-10T15:12:59.748Z,14.00
2022-10-10T15:15:26.587Z,14.00
2022-10-10T15:17:54.407Z,14.00
2022-10-10T15:20:25.613Z,14.10
2022-10-10T15:22:53.759Z,14.00
2022-10-10T15:25:21.887Z,13.90
2022-10-10T15:27:48.725Z,14.00
2022-10-10T15:30:15.737Z,14.10
2022-10-10T15:32:42.844Z,14.00
2022-10-10T15:35:17.309Z,14.10
2022-10-10T15:37:44.710Z,14.10
2022-10-10T15:40:12.870Z,14.10
2022-10-10T15:42:39.912Z,14.10
2022-10-10T15:45:07.202Z,14.20
2022-10-10T15:47:34.256Z,14.10
2022-10-10T15:50:01.342Z,14.00
2022-10-10T15:52:28.091Z,14.10
2022-10-10T15:54:55.598Z,14.20
2022-10-10T15:57:23.165Z,14.30
2022-10-10T15:59:51.403Z,14.30
2022-10-10T16:02:18.561Z,14.30
2022-10-10T16:04:45.890Z,14.40
2022-10-10T16:07:28.260Z,14.40
2022-10-10T16:09:57.832Z,14.20
2022-10-10T16:12:24.688Z,14.20
2022-10-10T16:14:51.453Z,14.30
2022-10-10T16:17:22.872Z,14.30
2022-10-10T16:19:50.391Z,14.40
2022-10-10T16:22:17.125Z,14.30
2022-10-10T16:24:53.919Z,14.30
2022-10-10T16:27:32.340Z,14.30
2022-10-10T16:29:59.332Z,14.40
2022-10-10T16:32:26.258Z,14.30
2022-10-10T16:34:53.011Z,14.40
2022-10-10T16:37:19.966Z,14.50
2022-10-10T16:39:46.796Z,14.40
2022-10-10T16:42:13.535Z,14.40
2022-10-10T16:44:40.373Z,14.40
2022-10-10T16:47:08.516Z,14.30
2022-10-10T16:49:35.287Z,14.30
2022-10-10T16:52:02.311Z,14.30
2022-10-10T16:54:29.067Z,14.20
2022-10-10T16:56:55.831Z,14.20
2022-10-10T16:59:22.655Z,14.20
2022-10-10T17:01:49.432Z,14.10
2022-10-10T17:04:16.198Z,14.10
2022-10-10T17:06:43.305Z,14.10
2022-10-10T17:09:11.572Z,14.00
2022-10-10T17:11:39.695Z,14.00
2022-10-10T17:14:06.741Z,14.00
2022-10-10T17:17:06.935Z,14.00
2022-10-10T17:19:21.488Z,13.80
2022-10-10T17:21:48.367Z,13.90
2022-10-10T17:24:16.442Z,13.90
2022-10-10T17:26:43.190Z,13.70
2022-10-10T17:29:10.197Z,13.80
2022-10-10T17:31:37.132Z,13.80
2022-10-10T17:34:03.955Z,13.80
2022-10-10T17:36:30.891Z,13.60
2022-10-10T17:39:00.389Z,13.70
2022-10-10T17:41:28.624Z,13.60
2022-10-10T17:43:55.651Z,13.60
2022-10-10T17:46:34.675Z,13.60
2022-10-10T17:49:02.341Z,13.60
2022-10-10T17:51:29.625Z,13.60
2022-10-10T17:53:59.381Z,13.60
2022-10-10T17:56:26.140Z,13.60
2022-10-10T17:58:53.323Z,13.60
2022-10-10T18:01:21.162Z,13.50
2022-10-10T18:03:48.657Z,13.40
2022-10-10T18:06:20.434Z,13.30
2022-10-10T18:08:48.680Z,13.30
2022-10-10T18:11:21.673Z,13.30
2022-10-10T18:13:48.551Z,13.30
2022-10-10T18:16:17.407Z,13.30
2022-10-10T18:18:50.683Z,13.30
2022-10-10T18:21:20.061Z,13.30
2022-10-10T18:23:47.120Z,13.20
2022-10-10T18:26:19.273Z,13.30
2022-10-10T18:28:49.578Z,13.20
2022-10-10T18:31:21.893Z,13.20
2022-10-10T18:33:49.021Z,13.10
2022-10-10T18:36:18.634Z,13.00
2022-10-10T18:38:46.280Z,13.00
2022-10-10T18:41:35.034Z,13.00
2022-10-10T18:44:16.591Z,13.00
2022-10-10T18:46:44.457Z,12.90
2022-10-10T18:49:13.618Z,12.90
2022-10-10T18:51:43.119Z,12.80
2022-10-10T18:54:13.537Z,12.80
2022-10-10T18:56:41.548Z,12.70
2022-10-10T18:59:12.583Z,12.60
2022-10-10T19:01:40.257Z,12.70
2022-10-10T19:04:12.293Z,12.60
2022-10-10T19:06:40.841Z,12.60
2022-10-10T19:09:11.098Z,12.70
2022-10-10T19:11:40.651Z,12.60
2022-10-10T19:14:13.774Z,12.60
2022-10-10T19:16:42.018Z,12.60
2022-10-10T19:19:11.018Z,12.50
2022-10-10T19:21:38.638Z,12.40
2022-10-10T19:24:07.740Z,12.40
2022-10-10T19:26:35.853Z,12.40
2022-10-10T19:29:07.036Z,12.30
2022-10-10T19:31:35.608Z,12.20
2022-10-10T19:34:02.400Z,12.20
2022-10-10T19:36:29.316Z,12.10
2022-10-10T19:39:00.032Z,12.10
2022-10-10T19:41:27.157Z,12.00
2022-10-10T19:43:54.531Z,11.90
2022-10-10T19:46:24.701Z,11.70
2022-10-10T19:48:54.668Z,11.50
2022-10-10T19:51:21.410Z,11.40
2022-10-10T19:53:48.244Z,11.50
2022-10-10T19:56:24.576Z,11.40
2022-10-10T19:58:53.758Z,11.20
2022-10-10T20:01:26.857Z,11.10
2022-10-10T20:03:56.195Z,11.20
2022-10-10T20:06:23.037Z,11.20
2022-10-10T20:08:50.291Z,11.10
2022-10-10T20:11:21.245Z,11.10
2022-10-10T20:13:52.113Z,11.00
2022-10-10T20:16:19.087Z,11.00
2022-10-10T20:18:45.878Z,11.00
2022-10-10T20:21:19.256Z,10.70
2022-10-10T20:23:47.970Z,10.70
2022-10-10T20:26:18.605Z,10.60
2022-10-10T20:28:46.591Z,10.50
2022-10-10T20:31:16.137Z,10.50
2022-10-10T20:33:44.029Z,10.40
2022-10-10T20:36:11.333Z,10.60
2022-10-10T20:38:39.503Z,10.50
2022-10-10T20:41:08.467Z,10.40
2022-10-10T20:43:37.564Z,10.10
2022-10-10T20:46:09.673Z,10.10
2022-10-10T20:48:37.235Z,10.20
2022-10-10T20:51:12.413Z,10.30
2022-10-10T20:53:43.826Z,10.30
2022-10-10T20:56:12.823Z,10.20
2022-10-10T20:58:40.958Z,10.20
2022-10-10T21:01:16.312Z,10.20
2022-10-10T21:03:44.570Z,10.00
2022-10-10T21:06:16.729Z,9.90
2022-10-10T21:08:43.612Z,9.80
2022-10-10T21:11:13.937Z,9.80
2022-10-10T21:13:44.653Z,9.70
2022-10-10T21:16:14.209Z,9.70
2022-10-10T21:18:44.558Z,9.90
2022-10-10T21:21:16.794Z,10.00
2022-10-10T21:23:46.363Z,10.10
2022-10-10T21:26:19.264Z,10.10
2022-10-10T21:28:46.809Z,10.00
2022-10-10T21:31:19.507Z,9.90
2022-10-10T21:33:50.105Z,9.80
2022-10-10T21:36:19.450Z,9.70
2022-10-10T21:38:46.302Z,9.50
2022-10-10T21:41:19.152Z,9.40
2022-10-10T21:43:52.241Z,9.30
2022-10-10T21:46:46.594Z,9.40
2022-10-10T21:49:13.537Z,9.50
2022-10-10T21:51:43.342Z,9.60
2022-10-10T21:54:10.704Z,9.50
2022-10-10T21:56:38.345Z,9.50
2022-10-10T21:59:05.951Z,9.40
2022-10-10T22:01:33.402Z,9.40
2022-10-10T22:04:01.144Z,9.30
2022-10-10T22:06:28.015Z,9.30
2022-10-10T22:08:57.335Z,9.20
2022-10-10T22:11:26.515Z,9.10
2022-10-10T22:13:53.663Z,9.10
2022-10-10T22:16:24.673Z,9.10
2022-10-10T22:18:56.219Z,9.30
2022-10-10T22:21:25.657Z,9.40
2022-10-10T22:23:56.087Z,9.40
2022-10-10T22:26:23.047Z,9.30
2022-10-10T22:28:50.289Z,9.20
2022-10-10T22:31:17.578Z,9.20
2022-10-10T22:33:44.544Z,9.10
2022-10-10T22:36:12.279Z,9.30
2022-10-10T22:38:41.405Z,9.40
2022-10-10T22:41:08.784Z,9.50
2022-10-10T22:43:35.686Z,9.50
2022-10-10T22:46:03.117Z,9.50
2022-10-10T22:48:30.325Z,9.30
2022-10-10T22:51:10.500Z,9.40
2022-10-10T22:53:39.530Z,9.50
2022-10-10T22:56:07.016Z,9.60
2022-10-10T22:58:34.237Z,9.60
2022-10-10T23:01:11.576Z,9.60
2022-10-10T23:03:38.496Z,9.60
2022-10-10T23:06:06.094Z,9.60
2022-10-10T23:08:33.930Z,9.50
2022-10-10T23:11:01.066Z,9.50
2022-10-10T23:13:28.481Z,9.50
2022-10-10T23:15:55.688Z,9.40
2022-10-10T23:18:27.700Z,9.50
2022-10-10T23:20:54.494Z,9.50
2022-10-10T23:23:21.319Z,9.40
2022-10-10T23:25:48.528Z,9.40
2022-10-10T23:28:16.969Z,9.20
2022-10-10T23:30:45.594Z,9.00
2022-10-10T23:33:13.484Z,8.90
2022-10-10T23:35:40.399Z,8.80
2022-10-10T23:38:07.397Z,8.70
2022-10-10T23:40:34.568Z,8.60
2022-10-10T23:43:01.740Z,8.60
2022-10-10T23:45:28.676Z,8.60
2022-10-10T23:47:55.623Z,8.60
2022-10-10T23:50:22.805Z,8.60
2022-10-10T23:52:49.622Z,8.60
2022-10-10T23:55:16.541Z,8.60
2022-10-10T23:57:43.521Z,8.70
